createdAt,value
2019-03-30T00:02:53.019Z,44.18
2019-03-30T00:07:57.418Z,39.85
2019-03-30T00:13:01.582Z,34.35
2019-03-30T00:18:10.116Z,30.48
2019-03-30T00:23:16.536Z,28.42
2019-03-30T00:28:19.975Z,26.97
2019-03-30T00:33:24.220Z,27.45
2019-03-30T00:38:27.664Z,28.15
2019-03-30T00:43:31.379Z,28.38
2019-03-30T00:48:37.543Z,26.80
2019-03-30T00:53:42.166Z,28.62
2019-03-30T00:58:49.132Z,27.90
2019-03-30T01:03:52.571Z,29.12
2019-03-30T01:08:56.133Z,26.57
2019-03-30T01:13:59.840Z,27.05
2019-03-30T01:19:10.957Z,26.00
2019-03-30T01:24:14.438Z,25.15
2019-03-30T01:29:17.871Z,26.00
2019-03-30T01:34:23.367Z,23.95
2019-03-30T01:39:26.803Z,24.02
2019-03-30T01:44:30.492Z,25.02
2019-03-30T01:49:33.944Z,24.12
2019-03-30T01:54:37.363Z,23.05
2019-03-30T01:59:41.018Z,23.45
2019-03-30T02:04:45.421Z,24.12
2019-03-30T02:09:48.837Z,24.82
2019-03-30T02:14:52.587Z,24.25
2019-03-30T02:19:56.037Z,23.73
2019-03-30T02:24:59.425Z,23.10
2019-03-30T02:30:02.757Z,23.07
2019-03-30T02:35:06.910Z,22.65
2019-03-30T02:40:10.665Z,21.23
2019-03-30T02:45:14.579Z,23.83
2019-03-30T02:50:17.984Z,23.05
2019-03-30T02:55:21.366Z,22.50
2019-03-30T03:00:24.738Z,22.32
2019-03-30T03:05:30.358Z,22.77
2019-03-30T03:10:34.486Z,23.02
2019-03-30T03:15:38.775Z,22.37
2019-03-30T03:20:42.197Z,21.57
2019-03-30T03:25:45.921Z,21.73
2019-03-30T03:30:49.929Z,23.35
2019-03-30T03:35:54.812Z,22.05
2019-03-30T03:40:58.878Z,21.80
2019-03-30T03:46:02.351Z,22.20
2019-03-30T03:51:05.782Z,21.50
2019-03-30T03:56:09.489Z,22.15
2019-03-30T04:01:12.841Z,21.73
2019-03-30T04:06:16.304Z,21.70
2019-03-30T04:11:20.584Z,21.57
2019-03-30T04:16:24.040Z,22.90
2019-03-30T04:21:42.899Z,22.62
2019-03-30T04:26:34.019Z,23.20
2019-03-30T04:31:37.764Z,23.18
2019-03-30T04:36:42.413Z,22.73
2019-03-30T04:41:46.045Z,23.02
2019-03-30T04:46:49.511Z,23.83
2019-03-30T04:51:57.815Z,21.30
2019-03-30T04:56:59.309Z,24.72
2019-03-30T05:02:05.962Z,22.60
2019-03-30T05:07:09.406Z,23.90
2019-03-30T05:12:13.236Z,23.15
2019-03-30T05:17:16.778Z,23.32
2019-03-30T05:22:20.143Z,23.30
2019-03-30T05:27:23.594Z,22.07
2019-03-30T05:32:28.764Z,22.40
2019-03-30T05:37:34.378Z,24.12
2019-03-30T05:42:49.472Z,22.50
2019-03-30T05:47:56.025Z,21.27
2019-03-30T05:53:02.265Z,23.32
2019-03-30T05:58:14.275Z,22.80
2019-03-30T06:09:37.290Z,22.17
2019-03-30T06:20:23.278Z,22.10
2019-03-30T06:31:20.993Z,22.13
2019-03-30T06:42:22.838Z,20.88
2019-03-30T06:47:28.431Z,24.45
2019-03-30T06:52:35.197Z,25.70
2019-03-30T06:57:41.497Z,22.58
2019-03-30T07:19:16.707Z,21.90
2019-03-30T07:24:22.473Z,22.77
2019-03-30T07:29:26.534Z,23.67
2019-03-30T07:34:31.289Z,22.52
2019-03-30T07:39:40.774Z,23.25
2019-03-30T07:55:34.316Z,24.27
2019-03-30T08:06:14.262Z,29.18
2019-03-30T08:22:43.559Z,26.17
2019-03-30T08:27:48.088Z,27.52
2019-03-30T08:32:51.584Z,27.55
2019-03-30T08:37:57.503Z,28.60
2019-03-30T08:43:04.708Z,31.25
2019-03-30T08:48:15.810Z,40.45
2019-03-30T08:53:24.157Z,36.65
2019-03-30T08:58:36.488Z,37.17
2019-03-30T09:03:46.643Z,35.10
2019-03-30T09:08:53.220Z,33.58
2019-03-30T09:13:59.988Z,33.13
2019-03-30T09:35:58.283Z,23.45
2019-03-30T09:41:02.336Z,25.62
2019-03-30T09:46:09.572Z,21.48
2019-03-30T09:51:14.714Z,20.30
2019-03-30T09:56:21.778Z,20.88
2019-03-30T10:01:42.488Z,21.62
2019-03-30T10:06:50.959Z,19.30
2019-03-30T10:11:59.102Z,25.62
2019-03-30T10:28:41.059Z,19.90
2019-03-30T10:44:46.291Z,16.50
2019-03-30T10:49:57.807Z,17.95
2019-03-30T10:55:02.588Z,17.50
2019-03-30T11:06:02.257Z,16.45
2019-03-30T11:11:15.125Z,19.20
2019-03-30T11:16:19.962Z,18.48
2019-03-30T11:21:24.692Z,18.17
2019-03-30T11:26:29.730Z,16.57
2019-03-30T11:31:46.297Z,16.20
2019-03-30T11:36:50.829Z,14.45
2019-03-30T11:41:56.562Z,14.50
2019-03-30T11:47:03.019Z,15.77
2019-03-30T11:52:17.647Z,15.53
2019-03-30T11:57:29.426Z,15.50
2019-03-30T12:02:41.069Z,16.23
2019-03-30T12:07:46.138Z,14.90
2019-03-30T12:12:54.156Z,14.60
2019-03-30T12:18:03.450Z,14.45
2019-03-30T12:23:11.739Z,12.80
2019-03-30T12:28:37.324Z,12.88
2019-03-30T12:33:54.888Z,14.07
2019-03-30T12:39:10.668Z,13.32
2019-03-30T12:44:15.506Z,12.33
2019-03-30T12:49:21.912Z,12.80
2019-03-30T12:54:43.574Z,12.60
2019-03-30T12:59:59.221Z,12.90
2019-03-30T13:05:12.068Z,13.58
2019-03-30T13:10:17.749Z,14.15
2019-03-30T13:15:21.165Z,14.05
2019-03-30T13:20:25.324Z,15.25
2019-03-30T13:25:29.766Z,16.73
2019-03-30T13:30:36.151Z,16.02
2019-03-30T13:35:40.519Z,16.97
2019-03-30T13:40:48.444Z,18.10
2019-03-30T13:45:53.821Z,19.67
2019-03-30T13:51:03.185Z,23.47
2019-03-30T13:56:17.173Z,22.07
2019-03-30T14:01:26.656Z,20.92
2019-03-30T14:06:34.829Z,19.98
2019-03-30T14:11:41.411Z,20.55
2019-03-30T14:16:46.797Z,21.10
2019-03-30T14:21:50.802Z,20.90
2019-03-30T14:27:01.926Z,20.88
2019-03-30T14:32:12.295Z,21.07
2019-03-30T14:37:16.289Z,22.70
2019-03-30T14:42:21.561Z,23.35
2019-03-30T14:47:38.907Z,25.95
2019-03-30T14:52:47.178Z,28.35
2019-03-30T14:57:58.085Z,30.75
2019-03-30T15:03:03.585Z,34.48
2019-03-30T15:08:08.738Z,36.93
2019-03-30T15:13:22.879Z,36.70
2019-03-30T15:18:37.109Z,35.52
2019-03-30T15:29:33.539Z,35.15
2019-03-30T15:34:37.902Z,37.65
2019-03-30T15:39:44.031Z,37.17
2019-03-30T15:50:54.725Z,39.38
2019-03-30T15:55:58.141Z,39.05
2019-03-30T16:01:02.201Z,39.55
2019-03-30T16:06:09.202Z,38.55
2019-03-30T16:11:14.382Z,41.20
2019-03-30T16:16:19.451Z,40.33
2019-03-30T16:21:25.326Z,42.58
2019-03-30T16:26:41.307Z,40.28
2019-03-30T16:31:36.375Z,40.85
2019-03-30T16:36:40.853Z,38.92
2019-03-30T16:41:44.342Z,42.53
2019-03-30T16:46:47.675Z,40.58
2019-03-30T16:51:52.249Z,42.75
2019-03-30T16:56:58.075Z,44.18
2019-03-30T17:02:01.925Z,44.27
2019-03-30T17:07:08.258Z,43.63
2019-03-30T17:12:11.680Z,41.60
2019-03-30T17:17:16.362Z,44.53
2019-03-30T17:22:20.461Z,45.58
2019-03-30T17:27:23.853Z,48.38
2019-03-30T17:32:29.276Z,49.23
2019-03-30T17:37:33.435Z,48.65
2019-03-30T17:42:39.354Z,51.37
2019-03-30T17:47:47.115Z,51.80
2019-03-30T17:52:50.528Z,53.08
2019-03-30T17:57:55.688Z,51.95
2019-03-30T18:02:58.992Z,53.28
2019-03-30T18:08:02.411Z,52.38
2019-03-30T18:13:06.719Z,53.15
2019-03-30T18:23:54.117Z,54.35
2019-03-30T18:28:57.252Z,53.33
2019-03-30T18:34:02.205Z,53.68
2019-03-30T18:39:09.938Z,58.28
2019-03-30T18:44:11.710Z,62.90
2019-03-30T18:49:23.229Z,65.40
2019-03-30T18:54:28.427Z,58.85
2019-03-30T18:59:33.774Z,60.00
2019-03-30T19:04:38.201Z,68.83
2019-03-30T19:09:41.669Z,97.85
2019-03-30T19:14:45.301Z,69.97
2019-03-30T19:19:50.172Z,126.97
2019-03-30T19:24:54.663Z,96.65
2019-03-30T19:29:59.085Z,98.85
2019-03-30T19:35:02.908Z,94.60
2019-03-30T19:40:06.493Z,82.35
2019-03-30T19:45:10.324Z,83.35
2019-03-30T19:50:14.359Z,79.53
2019-03-30T19:55:17.804Z,80.22
2019-03-30T20:00:21.218Z,80.60
2019-03-30T20:05:24.638Z,81.72
2019-03-30T20:10:30.630Z,82.12
2019-03-30T20:15:34.093Z,78.40
2019-03-30T20:20:37.494Z,83.75
2019-03-30T20:25:40.935Z,80.62
2019-03-30T20:30:44.286Z,82.45
2019-03-30T20:35:47.732Z,84.55
2019-03-30T20:40:53.961Z,83.78
2019-03-30T20:45:59.071Z,84.95
2019-03-30T20:51:02.838Z,85.57
2019-03-30T20:56:06.340Z,89.90
2019-03-30T21:01:11.079Z,87.25
2019-03-30T21:06:14.477Z,86.70
2019-03-30T21:11:19.528Z,90.15
2019-03-30T21:16:22.995Z,87.75
2019-03-30T21:21:28.789Z,92.60
2019-03-30T21:26:32.308Z,91.60
2019-03-30T21:31:35.745Z,95.97
2019-03-30T21:36:40.096Z,95.87
2019-03-30T21:41:44.256Z,96.00
2019-03-30T21:46:47.938Z,112.57
2019-03-30T21:51:51.330Z,114.32
2019-03-30T21:56:58.328Z,108.22
2019-03-30T22:02:01.408Z,103.27
2019-03-30T22:07:04.741Z,97.27
2019-03-30T22:12:08.918Z,94.03
2019-03-30T22:17:14.029Z,94.03
2019-03-30T22:22:17.450Z,96.32
2019-03-30T22:27:25.158Z,92.08
2019-03-30T22:32:28.841Z,91.95
2019-03-30T22:37:33.846Z,95.70
2019-03-30T22:42:37.234Z,91.60
2019-03-30T22:47:41.036Z,94.25
2019-03-30T22:52:44.417Z,94.72
2019-03-30T22:57:47.723Z,94.20
2019-03-30T23:02:51.062Z,94.42
2019-03-30T23:07:55.179Z,94.58
2019-03-30T23:12:59.641Z,92.65
2019-03-30T23:18:03.016Z,91.12
2019-03-30T23:23:08.036Z,93.00
2019-03-30T23:28:11.976Z,90.67
2019-03-30T23:33:16.154Z,90.28
2019-03-30T23:38:19.646Z,90.97
2019-03-30T23:43:23.004Z,91.25
2019-03-30T23:48:26.397Z,95.03
2019-03-30T23:53:29.805Z,90.30
2019-03-30T23:58:33.939Z,87.00
